Time;durP1;ratioP1;P1;durP2;ratioP2;P2;SDS_P1;SDS_P2;PMS_P1;PMS_P2;Temp;Humidity;BMP_temperature;BMP_pressure;BME280_temperature;BME280_humidity;BME280_pressure;Samples;Min_cycle;Max_cycle;Signal;HPM_P1;HPM_P2
2021/11/04 00:00:46;;;;;;;28.67;15.08;;;;;;;9.18;70.93;98737.15;1769732;80;20970;-78
2021/11/04 00:03:15;;;;;;;29.72;13.55;;;;;;;9.15;71.56;98741.98;1754874;80;20984;-78
2021/11/04 00:05:41;;;;;;;27.32;13.68;;;;;;;9.12;71.56;98743.78;1752962;80;21027;-78
2021/11/04 00:08:08;;;;;;;26.48;13.35;;;;;;;9.12;72.17;98742.49;1749572;80;21058;-78
2021/11/04 00:10:35;;;;;;;28.65;14.18;;;;;;;9.12;70.93;98737.30;1768373;80;21055;-78
2021/11/04 00:13:02;;;;;;;27.70;13.58;;;;;;;9.11;71.75;98739.48;1780658;80;21003;-79
2021/11/04 00:15:29;;;;;;;26.90;13.65;;;;;;;9.08;72.43;98732.62;1765798;80;21007;-78
2021/11/04 00:17:58;;;;;;;28.35;12.65;;;;;;;9.07;71.80;98740.44;1752419;79;20955;-76
2021/11/04 00:20:25;;;;;;;30.88;11.85;;;;;;;9.07;72.25;98730.95;1789203;79;20979;-78
2021/11/04 00:22:52;;;;;;;29.67;12.50;;;;;;;9.10;70.85;98718.34;1795068;79;20993;-78
2021/11/04 00:25:19;;;;;;;30.08;12.37;;;;;;;9.12;71.30;98721.75;1786824;79;21014;-77
2021/11/04 00:27:47;;;;;;;28.62;12.60;;;;;;;9.13;71.20;98718.24;1793945;79;20967;-78
2021/11/04 00:30:16;;;;;;;32.20;13.62;;;;;;;9.13;72.68;98719.54;1791035;79;20988;-78
2021/11/04 00:32:53;;;;;;;28.55;12.70;;;;;;;9.12;72.09;98720.45;1776760;80;20978;-78
2021/11/04 00:35:21;;;;;;;27.95;12.20;;;;;;;9.14;72.20;98727.29;1770412;80;20971;-77
2021/11/04 00:37:48;;;;;;;29.75;12.70;;;;;;;9.16;72.43;98727.26;1788105;80;21554;-78
2021/11/04 00:40:20;;;;;;;27.42;12.23;;;;;;;9.15;72.24;98734.20;1790628;80;21501;-77
2021/11/04 00:42:46;;;;;;;29.25;13.48;;;;;;;9.16;71.92;98731.99;1771933;80;21031;-77
2021/11/04 00:45:13;;;;;;;29.77;14.03;;;;;;;9.21;71.68;98716.34;1793447;80;21050;-78
2021/11/04 00:47:40;;;;;;;30.25;14.03;;;;;;;9.20;71.77;98719.80;1778934;80;20991;-78
2021/11/04 00:50:08;;;;;;;31.65;14.07;;;;;;;9.16;71.58;98725.51;1795408;80;20997;-79
2021/11/04 00:52:36;;;;;;;30.43;13.75;;;;;;;9.16;71.88;98732.45;1772269;80;20964;-78
2021/11/04 00:55:05;;;;;;;31.23;13.55;;;;;;;9.16;71.93;98724.21;1786156;79;21037;-76
2021/11/04 00:57:31;;;;;;;26.75;12.98;;;;;;;9.16;71.79;98719.02;1776946;80;21006;-78
2021/11/04 00:59:58;;;;;;;26.55;13.28;;;;;;;9.19;70.96;98722.01;1791038;80;21321;-78
2021/11/04 01:02:25;;;;;;;31.77;14.23;;;;;;;9.12;72.29;98719.15;1776383;80;20959;-80
2021/11/04 01:04:51;;;;;;;32.15;14.23;;;;;;;9.11;71.37;98709.23;1791800;80;20982;-75
2021/11/04 01:07:18;;;;;;;30.62;13.83;;;;;;;9.10;70.46;98714.45;1780319;80;21148;-79
2021/11/04 01:09:45;;;;;;;36.25;14.70;;;;;;;9.10;71.04;98703.63;1795621;80;20977;-78
2021/11/04 01:12:12;;;;;;;27.55;12.58;;;;;;;9.07;70.88;98702.84;1783415;80;21472;-79
2021/11/04 01:14:38;;;;;;;28.07;11.50;;;;;;;9.07;71.12;98701.55;1793893;80;21112;-77
2021/11/04 01:17:05;;;;;;;29.25;12.13;;;;;;;9.07;70.80;98705.02;1788519;80;21079;-78
2021/11/04 01:19:31;;;;;;;31.75;11.88;;;;;;;9.07;71.48;98706.73;1767651;80;21094;-78
2021/11/04 01:21:58;;;;;;;25.75;11.85;;;;;;;9.08;72.60;98699.38;1821871;78;20986;-79
2021/11/04 01:24:24;;;;;;;27.55;11.93;;;;;;;9.09;72.84;98698.47;1787732;79;21033;-78
2021/11/04 01:26:51;;;;;;;24.35;11.55;;;;;;;9.11;72.13;98697.98;1801899;79;21002;-78
2021/11/04 01:29:17;;;;;;;28.85;11.97;;;;;;;9.18;72.28;98692.22;1780490;80;21006;-78
2021/11/04 01:31:44;;;;;;;24.75;12.10;;;;;;;9.18;72.38;98704.73;1793985;80;21482;-79
2021/11/04 01:34:11;;;;;;;30.62;13.08;;;;;;;9.22;72.32;98704.20;1785001;80;20972;-77
2021/11/04 01:36:37;;;;;;;25.05;11.83;;;;;;;9.25;71.87;98694.61;1786762;80;20963;-78
2021/11/04 01:39:04;;;;;;;26.00;11.70;;;;;;;9.26;72.30;98678.59;1802287;79;21034;-78
2021/11/04 01:41:31;;;;;;;29.07;13.03;;;;;;;9.29;71.86;98677.20;1774112;80;20982;-76
2021/11/04 01:43:57;;;;;;;33.78;14.15;;;;;;;9.29;71.81;98666.82;1807403;78;20995;-76
2021/11/04 01:46:24;;;;;;;29.15;13.65;;;;;;;9.27;72.09;98678.56;1780082;80;20983;-76
2021/11/04 01:48:51;;;;;;;30.95;14.45;;;;;;;9.26;71.50;98667.77;1791164;80;20996;-79
2021/11/04 01:51:19;;;;;;;28.30;13.53;;;;;;;9.26;71.11;98672.95;1816514;78;20978;-78
2021/11/04 01:53:47;;;;;;;28.23;14.07;;;;;;;9.23;71.68;98673.47;1820521;77;21003;-76
2021/11/04 01:56:14;;;;;;;27.27;13.18;;;;;;;9.22;71.48;98676.52;1787780;79;20994;-79
2021/11/04 01:58:40;;;;;;;33.53;13.75;;;;;;;9.23;71.72;98679.53;1790018;80;21062;-79
2021/11/04 02:01:07;;;;;;;29.80;13.20;;;;;;;9.25;71.30;98683.36;1768407;80;21007;-78
2021/11/04 02:04:00;;;;;;;29.35;13.38;;;;;;;9.23;72.01;98670.45;1786823;80;20987;-79
2021/11/04 02:06:52;;;;;;;30.30;14.20;;;;;;;9.24;71.36;98670.00;1768395;79;21026;-79
2021/11/04 02:09:42;;;;;;;27.20;12.68;;;;;;;9.21;72.06;98668.35;1793914;80;21054;-78
2021/11/04 02:12:21;;;;;;;30.30;12.13;;;;;;;9.21;71.48;98667.48;1766787;80;21004;-79
2021/11/04 02:14:53;;;;;;;27.40;12.15;;;;;;;9.14;70.29;98662.45;1763063;80;21101;-76
2021/11/04 02:17:22;;;;;;;21.30;9.75;;;;;;;9.22;70.67;98668.74;1765011;80;21019;-76
2021/11/04 02:19:59;;;;;;;26.45;11.40;;;;;;;9.25;70.31;98673.86;1787882;79;21033;-77
2021/11/04 02:22:52;;;;;;;25.20;11.53;;;;;;;9.28;70.50;98661.25;1781936;79;20956;-76
2021/11/04 02:25:31;;;;;;;26.42;11.22;;;;;;;9.28;71.26;98667.28;1784583;80;21011;-78
2021/11/04 02:28:02;;;;;;;27.75;11.35;;;;;;;9.34;71.51;98666.27;1785810;79;21118;-78
2021/11/04 02:30:31;;;;;;;23.77;10.88;;;;;;;9.40;71.50;98668.69;1727965;80;21451;-78
2021/11/04 02:33:01;;;;;;;24.18;11.57;;;;;;;9.41;71.17;98653.55;1783176;80;21019;-79
2021/11/04 02:35:28;;;;;;;25.57;12.18;;;;;;;9.45;71.25;98675.92;1801295;79;21466;-77
2021/11/04 02:37:55;;;;;;;25.62;12.65;;;;;;;9.49;71.13;98684.45;1784964;79;21535;-78
2021/11/04 02:40:24;;;;;;;37.42;14.13;;;;;;;9.48;71.31;98676.27;1786392;80;21474;-78
2021/11/04 02:42:52;;;;;;;29.23;12.98;;;;;;;9.49;71.41;98677.53;1779243;79;21058;-79
2021/11/04 02:45:23;;;;;;;27.25;12.85;;;;;;;9.51;71.48;98677.47;1792867;79;21611;-79
2021/11/04 02:47:50;;;;;;;27.20;13.40;;;;;;;9.50;71.31;98681.81;1773056;80;20965;-76
2021/11/04 02:50:19;;;;;;;29.98;12.50;;;;;;;9.49;71.02;98669.75;1798820;79;20994;-76
2021/11/04 02:52:45;;;;;;;25.25;12.43;;;;;;;9.48;71.33;98665.89;1790150;79;21567;-78
2021/11/04 02:55:12;;;;;;;29.98;13.45;;;;;;;9.47;71.88;98679.32;1799498;79;21486;-77
2021/11/04 02:57:48;;;;;;;26.82;13.03;;;;;;;9.48;71.59;98676.27;1794131;79;21463;-79
2021/11/04 03:00:17;;;;;;;25.12;11.53;;;;;;;9.47;71.18;98675.85;1801059;79;21005;-78
2021/11/04 03:02:44;;;;;;;26.17;13.38;;;;;;;9.47;70.80;98668.94;1774304;79;20984;-78
2021/11/04 03:05:11;;;;;;;28.73;12.60;;;;;;;9.44;71.41;98665.58;1771856;80;21024;-78
2021/11/04 03:07:38;;;;;;;20.97;10.15;;;;;;;9.43;71.43;98661.27;1793579;79;21011;-77
2021/11/04 03:10:06;;;;;;;23.83;10.53;;;;;;;9.44;70.72;98664.28;1778639;80;21031;-78
2021/11/04 03:12:33;;;;;;;18.65;9.43;;;;;;;9.45;70.60;98673.33;1793945;79;20947;-78
2021/11/04 03:15:01;;;;;;;22.40;10.45;;;;;;;9.46;71.52;98672.41;1771830;80;21544;-76
2021/11/04 03:17:28;;;;;;;24.47;10.53;;;;;;;9.53;70.73;98658.39;1788097;79;21002;-76
2021/11/04 03:19:55;;;;;;;25.17;10.68;;;;;;;9.55;70.86;98660.95;1771484;80;20998;-75
2021/11/04 03:22:22;;;;;;;21.60;10.60;;;;;;;9.61;70.81;98677.65;1796176;79;20935;-76
2021/11/04 03:24:49;;;;;;;24.40;10.50;;;;;;;9.67;70.84;98667.52;1769977;79;21043;-78
2021/11/04 03:27:17;;;;;;;21.40;10.82;;;;;;;9.73;70.63;98672.56;1756267;80;21022;-78
2021/11/04 03:29:44;;;;;;;20.32;9.78;;;;;;;9.78;70.46;98669.82;1774590;80;20995;-78
2021/11/04 03:32:20;;;;;;;19.30;9.93;;;;;;;9.80;70.34;98679.26;1772652;80;21001;-77
2021/11/04 03:34:47;;;;;;;20.92;10.40;;;;;;;9.86;69.77;98681.67;1788145;78;20972;-77
2021/11/04 03:37:16;;;;;;;21.12;10.58;;;;;;;9.82;69.85;98679.22;1778997;78;21001;-79
2021/11/04 03:39:44;;;;;;;24.65;11.38;;;;;;;9.86;69.67;98678.23;1779927;78;21019;-76
2021/11/04 03:42:12;;;;;;;27.60;11.88;;;;;;;9.82;69.79;98676.17;1792446;80;21066;-77
2021/11/04 03:44:41;;;;;;;25.15;10.70;;;;;;;9.82;69.80;98675.33;1786378;80;21019;-77
2021/11/04 03:47:09;;;;;;;25.05;11.48;;;;;;;9.81;70.20;98671.02;1787299;80;20962;-78
2021/11/04 03:49:37;;;;;;;20.95;11.00;;;;;;;9.79;69.97;98674.98;1790966;80;21007;-78
2021/11/04 03:52:04;;;;;;;23.73;11.15;;;;;;;9.75;70.11;98668.17;1772305;80;21559;-78
2021/11/04 03:54:31;;;;;;;24.90;11.15;;;;;;;9.74;70.30;98663.41;1794106;80;20990;-78
2021/11/04 03:56:59;;;;;;;23.80;11.18;;;;;;;9.71;71.16;98662.67;1773918;80;21064;-78
2021/11/04 03:59:26;;;;;;;21.95;10.65;;;;;;;9.70;69.70;98668.73;1797043;80;20987;-78
2021/11/04 04:01:54;;;;;;;25.23;10.68;;;;;;;9.68;69.44;98660.98;1781943;80;21019;-81
2021/11/04 04:04:21;;;;;;;23.00;10.88;;;;;;;9.65;69.25;98670.17;1796322;80;20992;-79
2021/11/04 04:06:54;;;;;;;22.40;10.78;;;;;;;9.64;69.60;98678.00;1773010;80;21008;-79
2021/11/04 04:09:23;;;;;;;24.82;10.98;;;;;;;9.61;69.84;98664.67;1796130;80;21050;-78
2021/11/04 04:11:52;;;;;;;22.05;10.28;;;;;;;9.58;69.45;98653.06;1779411;80;21543;-79
2021/11/04 04:14:19;;;;;;;22.70;11.55;;;;;;;9.55;69.47;98667.44;1781609;80;21010;-78
2021/11/04 04:16:46;;;;;;;19.82;10.13;;;;;;;9.52;69.66;98663.16;1780740;80;20992;-78
2021/11/04 04:19:13;;;;;;;27.95;10.70;;;;;;;9.48;70.43;98645.98;1776352;80;21101;-78
2021/11/04 04:21:40;;;;;;;21.55;10.53;;;;;;;9.46;69.97;98651.66;1790196;80;21483;-78
2021/11/04 04:24:06;;;;;;;22.32;9.73;;;;;;;9.45;70.32;98654.29;1782610;80;21511;-78
2021/11/04 04:26:35;;;;;;;20.48;9.53;;;;;;;9.48;70.08;98655.52;1790840;80;21515;-78
2021/11/04 04:29:02;;;;;;;24.40;10.13;;;;;;;9.47;70.41;98644.72;1777276;80;20991;-78
2021/11/04 04:31:29;;;;;;;27.27;10.90;;;;;;;9.47;70.63;98640.40;1792831;80;21475;-78
2021/11/04 04:33:55;;;;;;;19.92;9.38;;;;;;;9.50;70.78;98631.22;1772214;80;20991;-78
2021/11/04 04:36:21;;;;;;;22.58;9.75;;;;;;;9.47;70.43;98644.72;1789718;80;21019;-77
2021/11/04 04:38:48;;;;;;;26.20;9.98;;;;;;;9.47;70.50;98636.51;1788506;78;20999;-80
2021/11/04 04:41:15;;;;;;;26.50;11.65;;;;;;;9.46;70.98;98628.30;1799003;79;20955;-78
2021/11/04 04:43:41;;;;;;;27.00;11.12;;;;;;;9.48;70.60;98638.20;1789811;78;20951;-78
2021/11/04 04:46:07;;;;;;;25.77;11.22;;;;;;;9.52;70.45;98640.27;1798808;79;21014;-78
2021/11/04 04:48:34;;;;;;;23.75;11.20;;;;;;;9.56;69.79;98639.28;1787281;78;21543;-78
2021/11/04 04:51:00;;;;;;;19.55;10.13;;;;;;;9.57;70.03;98629.31;1799559;79;20990;-79
2021/11/04 04:53:27;;;;;;;24.70;10.82;;;;;;;9.58;70.03;98641.38;1797508;78;21504;-78
2021/11/04 04:55:53;;;;;;;22.75;10.38;;;;;;;9.61;69.92;98628.75;1794314;80;21031;-78
2021/11/04 04:58:20;;;;;;;24.67;11.18;;;;;;;9.59;69.82;98626.23;1789455;80;20988;-78
2021/11/04 05:00:47;;;;;;;22.48;11.20;;;;;;;9.58;69.61;98614.13;1761522;80;20971;-78
2021/11/04 05:03:13;;;;;;;21.97;10.88;;;;;;;9.57;69.42;98617.64;1787566;80;21071;-79
2021/11/04 05:05:40;;;;;;;21.48;10.65;;;;;;;9.56;69.36;98617.22;1783860;80;21043;-78
2021/11/04 05:08:06;;;;;;;19.48;10.32;;;;;;;9.54;69.53;98612.52;1798972;80;21033;-78
2021/11/04 05:10:32;;;;;;;23.45;11.12;;;;;;;9.52;69.81;98606.53;1779574;80;20980;-78
2021/11/04 05:12:59;;;;;;;24.12;12.00;;;;;;;9.51;69.93;98604.81;1792226;80;21050;-78
2021/11/04 05:15:25;;;;;;;26.02;11.88;;;;;;;9.48;70.08;98604.46;1771544;80;20992;-78
2021/11/04 05:17:52;;;;;;;27.15;12.50;;;;;;;9.46;69.75;98614.03;1787486;80;21582;-78
2021/11/04 05:20:18;;;;;;;25.55;11.50;;;;;;;9.46;69.03;98640.44;1784510;80;21071;-78
2021/11/04 05:22:45;;;;;;;22.32;10.23;;;;;;;9.45;69.25;98665.54;1791334;80;21006;-78
2021/11/04 05:25:11;;;;;;;25.82;12.65;;;;;;;9.44;69.42;98665.58;1792528;80;20958;-78
2021/11/04 05:27:38;;;;;;;21.95;9.85;;;;;;;9.43;69.63;98663.86;1791823;80;21022;-77
2021/11/04 05:30:07;;;;;;;23.75;10.45;;;;;;;9.42;69.01;98640.12;1788140;80;21023;-77
2021/11/04 05:32:33;;;;;;;23.85;10.28;;;;;;;9.40;69.24;98634.97;1766363;80;20980;-77
2021/11/04 05:35:00;;;;;;;22.95;10.13;;;;;;;9.40;69.25;98638.86;1797677;79;21527;-77
2021/11/04 05:37:26;;;;;;;21.87;10.68;;;;;;;9.42;69.56;98650.50;1795605;78;21703;-78
2021/11/04 05:39:52;;;;;;;20.82;9.55;;;;;;;9.45;69.79;98647.38;1786985;78;21065;-77
2021/11/04 05:42:19;;;;;;;34.43;11.28;;;;;;;9.47;69.92;98647.31;1788156;78;21601;-78
2021/11/04 05:44:45;;;;;;;25.45;11.08;;;;;;;9.49;69.72;98646.82;1788314;80;21047;-78
2021/11/04 05:47:11;;;;;;;30.10;12.55;;;;;;;9.54;69.79;98655.34;1764175;80;20959;-78
2021/11/04 05:49:38;;;;;;;29.77;11.22;;;;;;;9.58;69.83;98647.03;1780970;78;20972;-78
2021/11/04 05:52:06;;;;;;;32.63;13.15;;;;;;;9.61;69.76;98658.19;1760797;80;21491;-78
2021/11/04 05:54:32;;;;;;;24.57;11.68;;;;;;;9.67;69.82;98645.03;1781683;80;21570;-77
2021/11/04 05:56:59;;;;;;;26.20;13.08;;;;;;;9.72;69.86;98636.64;1754039;80;21475;-78
2021/11/04 05:59:25;;;;;;;27.55;12.15;;;;;;;9.73;69.63;98626.67;1765875;80;21025;-78
2021/11/04 06:01:53;;;;;;;34.20;15.83;;;;;;;9.75;69.64;98636.56;1777302;80;20963;-78
2021/11/04 06:04:21;;;;;;;41.83;15.63;;;;;;;9.79;69.48;98645.55;1765955;80;21039;-77
2021/11/04 06:06:48;;;;;;;28.42;12.80;;;;;;;9.78;69.31;98647.76;1785003;78;21482;-78
2021/11/04 06:09:14;;;;;;;23.32;12.05;;;;;;;9.78;69.09;98640.81;1773105;78;21011;-78
2021/11/04 06:11:41;;;;;;;24.55;11.95;;;;;;;9.79;68.77;98641.66;1767808;80;20986;-78
2021/11/04 06:14:07;;;;;;;24.47;11.70;;;;;;;9.81;69.38;98652.84;1793404;80;20975;-78
2021/11/04 06:16:34;;;;;;;27.17;13.08;;;;;;;9.85;68.88;98645.40;1797295;80;21467;-79
2021/11/04 06:19:00;;;;;;;32.83;14.45;;;;;;;9.89;69.19;98636.16;1795857;79;21051;-78
2021/11/04 06:21:27;;;;;;;31.60;14.25;;;;;;;9.93;68.89;98646.02;1813377;79;20976;-78
2021/11/04 06:23:53;;;;;;;31.80;12.60;;;;;;;9.98;68.64;98647.17;1762771;80;21027;-78
2021/11/04 06:26:20;;;;;;;37.33;16.27;;;;;;;10.03;68.67;98646.59;1797347;79;21031;-78
2021/11/04 06:28:46;;;;;;;66.28;31.73;;;;;;;10.08;68.78;98639.04;1787663;78;21511;-78
2021/11/04 06:31:13;;;;;;;25.85;13.30;;;;;;;10.13;68.36;98638.47;1768558;80;21740;-76
2021/11/04 06:33:40;;;;;;;26.27;11.80;;;;;;;10.14;68.81;98628.46;1792944;78;21010;-80
2021/11/04 06:36:06;;;;;;;22.67;12.30;;;;;;;10.19;68.77;98624.91;1756945;81;21295;-78
2021/11/04 06:38:34;;;;;;;25.20;11.80;;;;;;;10.21;69.30;98624.41;1797452;78;21138;-77
2021/11/04 06:41:01;;;;;;;23.05;9.85;;;;;;;10.25;68.37;98624.25;1793138;79;21033;-78
2021/11/04 06:43:28;;;;;;;26.48;11.30;;;;;;;10.28;68.68;98636.28;1769838;80;21007;-81
2021/11/04 06:45:57;;;;;;;25.00;10.90;;;;;;;10.33;68.73;98627.48;1787393;79;21507;-77
2021/11/04 06:48:28;;;;;;;21.15;10.25;;;;;;;10.37;68.91;98619.16;1783882;79;21030;-77
2021/11/04 06:50:59;;;;;;;27.13;11.73;;;;;;;10.40;68.85;98616.89;1787642;79;21019;-77
2021/11/04 06:53:27;;;;;;;22.37;10.98;;;;;;;10.44;68.60;98610.23;1801785;79;21495;-77
2021/11/04 06:55:57;;;;;;;22.35;11.10;;;;;;;10.49;68.12;98610.11;1774231;79;21006;-77
2021/11/04 06:58:29;;;;;;;23.95;11.20;;;;;;;10.56;67.91;98616.80;1807744;78;20922;-78
2021/11/04 07:01:00;;;;;;;26.40;12.90;;;;;;;10.63;67.81;98607.91;1766189;80;21021;-78
2021/11/04 07:03:30;;;;;;;23.57;11.73;;;;;;;10.63;67.55;98587.57;1787440;78;21046;-78
2021/11/04 07:06:08;;;;;;;23.83;11.78;;;;;;;10.69;67.26;98600.36;1784386;79;22001;-80
2021/11/04 07:08:45;;;;;;;32.73;14.18;;;;;;;10.71;67.23;98594.66;1788318;79;21046;-80
2021/11/04 07:11:11;;;;;;;33.80;12.75;;;;;;;10.77;67.11;98591.84;1778658;79;22474;-78
2021/11/04 07:13:39;;;;;;;26.90;12.53;;;;;;;10.84;66.95;98605.48;1786084;79;20928;-79
2021/11/04 07:16:06;;;;;;;26.48;12.80;;;;;;;10.88;66.80;98594.94;1802410;78;20987;-80
2021/11/04 07:18:33;;;;;;;30.97;12.82;;;;;;;10.92;66.60;98593.05;1785910;78;21034;-78
2021/11/04 07:21:19;;;;;;;25.48;13.28;;;;;;;10.94;66.47;98584.33;1800475;78;21011;-78
2021/11/04 07:24:05;;;;;;;29.23;12.25;;;;;;;10.99;66.61;98575.05;1790622;78;21165;-78
2021/11/04 07:26:40;;;;;;;27.15;13.38;;;;;;;11.06;66.32;98573.07;1809482;78;21036;-78
2021/11/04 07:29:11;;;;;;;26.97;13.50;;;;;;;11.13;66.42;98565.45;1803826;78;20988;-78
2021/11/04 07:31:41;;;;;;;29.63;13.68;;;;;;;11.23;66.32;98581.13;1797916;78;21005;-79
2021/11/04 07:34:11;;;;;;;27.22;12.88;;;;;;;11.34;66.66;98563.38;1774293;80;20995;-79
2021/11/04 07:36:40;;;;;;;29.00;14.00;;;;;;;11.46;66.54;98585.94;1783007;79;21031;-79
2021/11/04 07:39:11;;;;;;;28.60;15.10;;;;;;;11.58;66.21;98559.91;1796659;77;21008;-80
2021/11/04 07:41:38;;;;;;;37.63;14.98;;;;;;;11.68;66.63;98560.82;1769886;80;20977;-79
2021/11/04 07:44:05;;;;;;;28.67;15.08;;;;;;;11.80;66.54;98570.35;1768303;80;21038;-79
2021/11/04 07:46:32;;;;;;;32.48;15.40;;;;;;;11.93;66.22;98566.41;1788918;78;21646;-79
2021/11/04 07:49:00;;;;;;;28.52;13.32;;;;;;;12.03;66.30;98548.20;1764880;80;21484;-78
2021/11/04 07:51:27;;;;;;;30.65;15.75;;;;;;;12.18;66.18;98552.43;1771628;79;21595;-77
2021/11/04 07:53:56;;;;;;;30.30;15.48;;;;;;;12.30;66.30;98558.44;1775228;79;21027;-78
2021/11/04 07:56:23;;;;;;;24.65;12.30;;;;;;;12.46;66.37;98560.81;1771176;80;21070;-77
2021/11/04 07:58:49;;;;;;;30.75;12.43;;;;;;;12.62;65.84;98553.66;1771549;80;20944;-79
2021/11/04 08:01:15;;;;;;;27.80;13.00;;;;;;;12.79;65.92;98552.46;1789214;80;21044;-79
2021/11/04 08:03:43;;;;;;;25.97;13.60;;;;;;;12.95;65.89;98551.34;1774124;79;21498;-76
2021/11/04 08:06:10;;;;;;;29.05;13.80;;;;;;;13.10;65.75;98565.50;1767137;79;21500;-79
2021/11/04 08:08:37;;;;;;;33.48;14.80;;;;;;;13.22;64.95;98568.03;1776634;79;21499;-79
2021/11/04 08:11:03;;;;;;;29.85;14.78;;;;;;;13.32;65.21;98565.43;1781017;80;21065;-79
2021/11/04 08:13:30;;;;;;;28.35;13.58;;;;;;;13.38;64.66;98567.77;1773772;80;20983;-79
2021/11/04 08:15:56;;;;;;;30.17;13.83;;;;;;;13.45;64.44;98577.03;1782993;79;21100;-79
2021/11/04 08:18:24;;;;;;;27.17;14.18;;;;;;;13.52;64.07;98588.88;1783062;79;21490;-79
2021/11/04 08:20:51;;;;;;;32.40;14.43;;;;;;;13.62;63.23;98584.08;1771177;79;21586;-78
2021/11/04 08:23:18;;;;;;;26.57;13.08;;;;;;;13.67;63.70;98590.42;1762496;80;22105;-78
2021/11/04 08:25:46;;;;;;;27.27;13.95;;;;;;;13.68;63.63;98597.33;1762473;80;21059;-78
2021/11/04 08:28:12;;;;;;;36.90;14.68;;;;;;;13.72;63.67;98595.80;1782076;79;22136;-78
2021/11/04 08:30:39;;;;;;;30.05;14.33;;;;;;;13.79;63.63;98599.00;1767667;80;21079;-79
2021/11/04 08:33:05;;;;;;;31.15;13.00;;;;;;;13.85;63.51;98605.71;1780201;79;21531;-78
2021/11/04 08:35:32;;;;;;;29.60;12.43;;;;;;;13.87;63.15;98595.56;1773743;80;21039;-78
2021/11/04 08:37:59;;;;;;;23.85;11.10;;;;;;;13.91;63.01;98592.36;1774890;80;21045;-78
2021/11/04 08:40:25;;;;;;;24.55;12.25;;;;;;;13.93;62.23;98591.36;1774511;78;21027;-79
2021/11/04 08:42:52;;;;;;;25.12;12.40;;;;;;;13.88;62.43;98584.64;1744719;80;21527;-79
2021/11/04 08:45:19;;;;;;;28.47;12.58;;;;;;;13.87;62.50;98578.58;1774394;80;20957;-80
2021/11/04 08:47:46;;;;;;;30.37;13.62;;;;;;;13.85;62.20;98567.36;1777600;78;20996;-82
2021/11/04 08:50:13;;;;;;;28.00;11.30;;;;;;;13.82;61.43;98568.80;1771371;80;22238;-82
2021/11/04 08:52:40;;;;;;;26.42;11.88;;;;;;;13.82;61.58;98574.48;1781139;79;21550;-79
2021/11/04 08:55:09;;;;;;;26.05;13.72;;;;;;;13.84;61.71;98577.41;1775890;78;21080;-78
2021/11/04 08:57:38;;;;;;;26.45;13.15;;;;;;;13.82;60.97;98582.33;1783435;78;20909;-78
2021/11/04 09:00:08;;;;;;;34.08;16.37;;;;;;;13.80;60.99;98576.32;1782509;78;20975;-79
2021/11/04 09:02:34;;;;;;;30.10;15.85;;;;;;;13.82;61.00;98569.26;1779712;78;22157;-80
2021/11/04 09:05:06;;;;;;;52.03;23.87;;;;;;;13.87;61.05;98571.21;1777458;79;21028;-74
2021/11/04 09:07:29;;;;;;;42.03;21.15;;;;;;;13.97;60.99;98580.78;1776852;78;21026;-77
2021/11/04 09:09:56;;;;;;;42.60;19.57;;;;;;;14.08;60.68;98581.94;1776330;79;21035;-77
2021/11/04 09:12:22;;;;;;;33.63;15.30;;;;;;;14.24;60.93;98578.59;1776743;78;21045;-78
2021/11/04 09:14:49;;;;;;;32.98;15.72;;;;;;;14.38;60.53;98578.77;1771990;78;21056;-77
2021/11/04 09:17:17;;;;;;;35.23;14.18;;;;;;;14.52;60.00;98573.72;1773567;78;20992;-77
2021/11/04 09:19:45;;;;;;;25.55;11.95;;;;;;;14.64;59.95;98577.53;1774725;78;21073;-78
2021/11/04 09:22:12;;;;;;;28.27;13.50;;;;;;;14.76;59.55;98579.12;1768018;78;21025;-79
2021/11/04 09:24:40;;;;;;;29.45;14.15;;;;;;;14.86;60.01;98584.28;1776956;78;21051;-78
2021/11/04 09:27:07;;;;;;;37.88;17.70;;;;;;;14.99;60.13;98583.20;1780784;78;20980;-76
2021/11/04 09:29:35;;;;;;;34.43;17.48;;;;;;;15.09;58.72;98568.25;1778756;78;21107;-78
2021/11/04 09:32:06;;;;;;;53.08;24.65;;;;;;;15.21;59.01;98574.62;1773238;78;21023;-76
2021/11/04 09:34:31;;;;;;;26.62;12.28;;;;;;;15.33;59.27;98577.05;1766375;78;21299;-79
2021/11/04 09:36:58;;;;;;;21.95;9.03;;;;;;;15.47;58.85;98576.33;1765717;78;21591;-76
2021/11/04 09:39:24;;;;;;;34.33;14.38;;;;;;;15.57;57.62;98576.20;1778174;78;21094;-77
2021/11/04 09:41:51;;;;;;;38.30;17.45;;;;;;;15.68;57.58;98573.87;1777184;78;21034;-76
2021/11/04 09:44:20;;;;;;;26.15;11.55;;;;;;;15.82;57.50;98565.76;1788188;78;21015;-76
2021/11/04 09:46:47;;;;;;;26.48;11.00;;;;;;;15.93;57.03;98555.50;1777874;80;21017;-76
2021/11/04 09:49:14;;;;;;;20.88;8.83;;;;;;;16.01;56.73;98565.56;1777770;78;21041;-78
2021/11/04 09:51:42;;;;;;;23.70;11.78;;;;;;;16.08;55.09;98569.55;1787332;78;21299;-78
2021/11/04 09:54:09;;;;;;;33.08;12.25;;;;;;;16.15;55.69;98560.39;1789434;78;21042;-78
2021/11/04 09:56:37;;;;;;;21.90;11.50;;;;;;;16.14;54.42;98565.74;1789870;78;21481;-78
2021/11/04 09:59:04;;;;;;;24.35;10.93;;;;;;;16.13;55.27;98560.94;1792452;78;21494;-76
2021/11/04 10:01:34;;;;;;;20.30;9.40;;;;;;;16.13;55.00;98561.41;1787649;78;21429;-76
2021/11/04 10:04:03;;;;;;;18.17;8.55;;;;;;;16.15;54.36;98552.99;1790266;78;21025;-78
2021/11/04 10:06:34;;;;;;;16.52;7.47;;;;;;;16.22;55.22;98539.45;1798767;78;20995;-78
2021/11/04 10:09:05;;;;;;;19.10;8.43;;;;;;;16.29;55.52;98538.63;1781448;79;21086;-77
2021/11/04 10:11:41;;;;;;;15.45;7.25;;;;;;;16.36;54.94;98545.70;1775637;79;21043;-77
2021/11/04 10:14:07;;;;;;;16.87;7.35;;;;;;;16.45;55.25;98554.33;1771052;79;20983;-76
2021/11/04 10:16:35;;;;;;;13.03;7.10;;;;;;;16.56;54.94;98535.36;1778961;79;20996;-76
2021/11/04 10:19:05;;;;;;;13.88;7.45;;;;;;;16.69;54.45;98542.86;1779802;80;20978;-76
2021/11/04 10:21:38;;;;;;;20.32;6.75;;;;;;;16.84;54.35;98534.12;1773384;79;21054;-76
2021/11/04 10:24:08;;;;;;;;;;;;;;;16.98;54.09;98532.45;1775830;79;20995;-77
2021/11/04 10:26:38;;;;;;;13.10;6.25;;;;;;;17.10;53.41;98536.96;1763336;80;20165;-78
2021/11/04 10:29:13;;;;;;;14.85;6.17;;;;;;;17.20;53.27;98535.45;1793075;78;21668;-79
2021/11/04 10:31:51;;;;;;;15.90;5.55;;;;;;;17.34;53.20;98528.05;1762767;80;21547;-79
2021/11/04 10:34:31;;;;;;;18.67;6.97;;;;;;;17.42;52.92;98519.22;1762790;80;20999;-79
2021/11/04 10:37:18;;;;;;;15.30;6.92;;;;;;;17.56;52.91;98518.35;1789488;78;21107;-79
2021/11/04 10:39:46;;;;;;;17.00;6.65;;;;;;;17.72;52.99;98518.23;1760389;80;21023;-79
2021/11/04 10:42:14;;;;;;;13.00;6.03;;;;;;;17.87;52.30;98517.28;1773728;80;21073;-77
2021/11/04 10:44:40;;;;;;;13.83;6.35;;;;;;;18.02;52.32;98519.86;1781092;79;21054;-78
2021/11/04 10:47:07;;;;;;;19.75;7.55;;;;;;;18.16;51.90;98521.59;1760530;80;21343;-78
2021/11/04 10:49:42;;;;;;;16.67;7.45;;;;;;;18.31;51.60;98511.39;1769994;80;21524;-77
2021/11/04 10:52:10;;;;;;;19.35;7.58;;;;;;;18.46;51.42;98520.04;1769490;80;21016;-77
2021/11/04 10:54:49;;;;;;;16.87;7.83;;;;;;;18.66;51.06;98514.30;1786149;78;21117;-78
2021/11/04 10:57:35;;;;;;;20.30;8.23;;;;;;;18.79;50.42;98514.78;1779584;79;21011;-77
2021/11/04 11:00:23;;;;;;;18.48;8.30;;;;;;;18.95;49.45;98513.29;1792607;79;21003;-77
2021/11/04 11:03:06;;;;;;;20.12;8.05;;;;;;;19.10;49.25;98506.11;1789869;79;20984;-76
2021/11/04 11:05:35;;;;;;;21.75;8.55;;;;;;;19.24;49.31;98502.89;1792111;79;20994;-77
2021/11/04 11:08:07;;;;;;;22.55;9.80;;;;;;;19.36;47.18;98515.69;1797162;78;21506;-75
2021/11/04 11:10:36;;;;;;;20.50;8.98;;;;;;;19.52;47.67;98522.03;1811983;78;21038;-77
2021/11/04 11:13:05;;;;;;;21.23;9.95;;;;;;;19.70;47.92;98515.92;1765189;80;21633;-78
2021/11/04 11:15:35;;;;;;;18.55;8.98;;;;;;;19.90;48.06;98516.31;1775762;80;20940;-78
2021/11/04 11:18:05;;;;;;;20.02;9.15;;;;;;;20.04;47.69;98518.30;1764618;79;21034;-78
2021/11/04 11:20:44;;;;;;;17.17;8.30;;;;;;;20.20;48.11;98516.69;1795855;79;20982;-77
2021/11/04 11:23:23;;;;;;;19.10;8.80;;;;;;;20.35;46.62;98512.09;1789794;79;20995;-77
2021/11/04 11:26:01;;;;;;;16.67;8.83;;;;;;;20.51;45.41;98518.84;1800477;79;20962;-77
2021/11/04 11:28:36;;;;;;;16.87;7.92;;;;;;;20.66;45.68;98515.08;1785580;79;21475;-78
2021/11/04 11:31:16;;;;;;;17.37;6.65;;;;;;;20.95;44.10;98514.64;1790943;79;20956;-77